createdAt,value
2018-04-24T00:00:20.313Z,61.81
2018-04-24T00:02:48.633Z,61.62
2018-04-24T00:05:16.953Z,61.62
2018-04-24T00:07:45.296Z,61.59
2018-04-24T00:10:13.630Z,61.39
2018-04-24T00:12:41.972Z,61.23
2018-04-24T00:15:10.296Z,61.00
2018-04-24T00:17:38.641Z,61.48
2018-04-24T00:20:06.961Z,61.40
2018-04-24T00:22:35.304Z,61.57
2018-04-24T00:25:03.633Z,61.98
2018-04-24T00:27:31.978Z,62.21
2018-04-24T00:30:00.312Z,61.72
2018-04-24T00:32:28.673Z,61.31
2018-04-24T00:34:57.013Z,61.34
2018-04-24T00:37:25.369Z,61.35
2018-04-24T00:39:53.689Z,61.52
2018-04-24T00:42:22.044Z,61.45
2018-04-24T00:44:50.370Z,61.58
2018-04-24T00:47:18.725Z,61.22
2018-04-24T00:49:47.041Z,61.17
2018-04-24T00:52:15.385Z,61.88
2018-04-24T00:54:43.704Z,62.09
2018-04-24T00:57:12.056Z,62.23
2018-04-24T00:59:40.388Z,62.78
2018-04-24T01:02:08.738Z,62.74
2018-04-24T01:04:37.069Z,62.78
2018-04-24T01:07:05.417Z,62.67
2018-04-24T01:09:33.761Z,62.56
2018-04-24T01:12:02.104Z,62.72
2018-04-24T01:14:30.441Z,62.85
2018-04-24T01:16:58.780Z,63.03
2018-04-24T01:19:27.116Z,62.84
2018-04-24T01:21:55.465Z,62.89
2018-04-24T01:24:23.801Z,62.88
2018-04-24T01:26:52.160Z,63.10
2018-04-24T01:29:20.498Z,63.34
2018-04-24T01:31:48.825Z,63.33
2018-04-24T01:34:17.185Z,62.96
2018-04-24T01:36:45.525Z,63.13
2018-04-24T01:39:13.879Z,62.92
2018-04-24T01:41:42.217Z,62.71
2018-04-24T01:44:10.581Z,62.87
2018-04-24T01:46:38.908Z,63.12
2018-04-24T01:49:07.269Z,63.39
2018-04-24T01:51:35.592Z,63.49
2018-04-24T01:54:03.943Z,62.93
2018-04-24T01:56:32.290Z,63.09
2018-04-24T01:59:00.650Z,62.95
2018-04-24T02:01:28.994Z,62.83
2018-04-24T02:03:57.348Z,62.74
2018-04-24T02:06:25.691Z,62.43
2018-04-24T02:08:54.054Z,62.60
2018-04-24T02:11:22.393Z,62.54
2018-04-24T02:13:50.747Z,62.39
2018-04-24T02:16:19.068Z,62.53
2018-04-24T02:18:47.428Z,62.42
2018-04-24T02:21:15.770Z,63.17
2018-04-24T02:23:44.120Z,63.53
2018-04-24T02:26:12.461Z,63.86
2018-04-24T02:28:40.826Z,64.27
2018-04-24T02:31:09.155Z,64.26
2018-04-24T02:33:37.505Z,64.62
2018-04-24T02:36:05.849Z,64.70
2018-04-24T02:38:34.191Z,64.80
2018-04-24T02:41:02.524Z,64.75
2018-04-24T02:43:30.876Z,64.84
2018-04-24T02:45:59.213Z,64.96
2018-04-24T02:48:27.570Z,65.26
2018-04-24T02:50:55.904Z,65.24
2018-04-24T02:53:24.260Z,65.04
2018-04-24T02:55:52.592Z,64.56
2018-04-24T02:58:20.961Z,64.53
2018-04-24T03:00:49.293Z,64.49
2018-04-24T03:03:17.641Z,64.44
2018-04-24T03:05:45.980Z,64.62
2018-04-24T03:08:14.345Z,64.60
2018-04-24T03:10:42.692Z,64.62
2018-04-24T03:13:11.044Z,64.85
2018-04-24T03:15:39.390Z,64.86
2018-04-24T03:18:07.745Z,65.22
2018-04-24T03:20:36.089Z,65.41
2018-04-24T03:23:04.453Z,65.31
2018-04-24T03:25:32.793Z,65.25
2018-04-24T03:28:01.127Z,64.98
2018-04-24T03:30:29.480Z,65.38
2018-04-24T03:32:57.817Z,65.54
2018-04-24T03:35:26.172Z,65.45
2018-04-24T03:37:54.513Z,65.81
2018-04-24T03:40:22.880Z,66.06
2018-04-24T03:42:51.212Z,66.21
2018-04-24T03:45:19.568Z,66.03
2018-04-24T03:47:47.907Z,66.20
2018-04-24T03:50:16.276Z,66.19
2018-04-24T03:52:44.621Z,66.33
2018-04-24T03:55:12.985Z,66.07
2018-04-24T03:57:41.338Z,65.76
2018-04-24T04:00:09.686Z,65.87
2018-04-24T04:02:38.037Z,65.84
2018-04-24T04:05:06.397Z,66.37
2018-04-24T04:07:34.748Z,66.36
2018-04-24T04:10:03.104Z,65.92
2018-04-24T04:12:31.464Z,65.19
2018-04-24T04:14:59.824Z,65.06
2018-04-24T04:17:39.814Z,64.27
2018-04-24T04:20:19.978Z,63.92
2018-04-24T04:23:00.125Z,64.02
2018-04-24T04:25:28.527Z,63.49
2018-04-24T04:27:56.853Z,63.76
2018-04-24T04:30:25.209Z,63.88
2018-04-24T04:32:53.637Z,64.07
2018-04-24T04:35:21.909Z,63.71
2018-04-24T04:37:50.412Z,64.03
2018-04-24T04:40:18.764Z,63.06
2018-04-24T04:42:47.102Z,62.88
2018-04-24T04:45:15.464Z,62.84
2018-04-24T04:47:43.902Z,62.99
2018-04-24T04:50:12.183Z,63.45
2018-04-24T04:52:40.525Z,63.42
2018-04-24T04:55:08.880Z,63.65
2018-04-24T04:57:38.194Z,63.82
2018-04-24T05:00:06.629Z,63.86
2018-04-24T05:02:34.964Z,63.93
2018-04-24T05:05:03.316Z,63.95
2018-04-24T05:07:31.655Z,64.00
2018-04-24T05:10:00.000Z,63.95
2018-04-24T05:12:28.337Z,64.48
2018-04-24T05:14:56.707Z,64.52
2018-04-24T05:17:25.029Z,64.44
2018-04-24T05:19:53.378Z,64.29
2018-04-24T05:22:21.700Z,64.29
2018-04-24T05:24:50.948Z,63.85
2018-04-24T05:27:19.280Z,64.01
2018-04-24T05:29:47.635Z,63.95
2018-04-24T05:32:15.978Z,64.28
2018-04-24T05:34:44.328Z,64.70
2018-04-24T05:37:12.670Z,65.46
2018-04-24T05:39:41.025Z,65.21
2018-04-24T05:42:09.357Z,64.46
2018-04-24T05:44:38.579Z,66.55
2018-04-24T05:47:06.908Z,64.69
2018-04-24T05:49:35.261Z,64.40
2018-04-24T05:52:03.613Z,64.57
2018-04-24T05:54:32.109Z,64.21
2018-04-24T05:57:00.446Z,64.49
2018-04-24T05:59:28.780Z,64.69
2018-04-24T06:01:57.136Z,64.69
2018-04-24T06:04:26.196Z,64.62
2018-04-24T06:06:54.547Z,64.36
2018-04-24T06:09:22.885Z,64.44
2018-04-24T06:11:51.240Z,64.57
2018-04-24T06:14:19.648Z,64.94
2018-04-24T06:16:48.001Z,63.73
2018-04-24T06:19:16.328Z,63.93
2018-04-24T06:21:44.682Z,64.28
2018-04-24T06:24:13.014Z,64.15
2018-04-24T06:26:41.380Z,63.99
2018-04-24T06:29:09.748Z,64.21
2018-04-24T06:31:38.100Z,64.25
2018-04-24T06:34:06.569Z,64.40
2018-04-24T06:36:34.921Z,64.52
2018-04-24T06:39:03.325Z,65.70
2018-04-24T06:41:31.693Z,65.83
2018-04-24T06:44:00.042Z,65.85
2018-04-24T06:46:28.737Z,66.44
2018-04-24T06:48:57.094Z,67.10
2018-04-24T06:51:25.451Z,66.34
2018-04-24T06:53:53.839Z,66.58
2018-04-24T06:56:22.160Z,65.48
2018-04-24T06:58:50.500Z,65.84
2018-04-24T07:01:18.861Z,65.64
2018-04-24T07:03:47.194Z,64.89
2018-04-24T07:06:15.552Z,65.07
2018-04-24T07:08:43.884Z,64.65
2018-04-24T07:11:12.249Z,64.99
2018-04-24T07:13:40.580Z,64.06
2018-04-24T07:16:08.936Z,64.69
2018-04-24T07:18:37.277Z,64.45
2018-04-24T07:21:05.632Z,63.73
2018-04-24T07:23:33.969Z,63.49
2018-04-24T07:26:02.329Z,64.12
2018-04-24T07:28:30.666Z,63.47
2018-04-24T07:30:59.025Z,63.01
2018-04-24T07:33:27.360Z,62.72
2018-04-24T07:35:55.712Z,62.18
2018-04-24T07:38:24.045Z,62.14
2018-04-24T07:40:52.404Z,62.39
2018-04-24T07:43:20.736Z,62.13
2018-04-24T07:45:49.092Z,61.79
2018-04-24T07:48:17.423Z,62.72
2018-04-24T07:50:45.785Z,62.66
2018-04-24T07:53:14.117Z,63.04
2018-04-24T07:55:42.476Z,63.51
2018-04-24T07:58:10.812Z,64.19
2018-04-24T08:00:39.152Z,64.62
2018-04-24T08:03:07.513Z,63.98
2018-04-24T08:05:35.843Z,63.79
2018-04-24T08:08:04.201Z,64.23
2018-04-24T08:10:32.545Z,64.51
2018-04-24T08:13:00.897Z,64.13
2018-04-24T08:15:29.236Z,64.37
2018-04-24T08:17:57.592Z,63.51
2018-04-24T08:20:25.925Z,63.87
2018-04-24T08:22:54.323Z,63.60
2018-04-24T08:25:22.620Z,64.09
2018-04-24T08:27:50.981Z,63.98
2018-04-24T08:30:19.318Z,64.17
2018-04-24T08:32:47.675Z,64.02
2018-04-24T08:35:16.008Z,63.49
2018-04-24T08:37:44.368Z,64.18
2018-04-24T08:40:12.714Z,64.70
2018-04-24T08:42:41.072Z,65.58
2018-04-24T08:45:09.400Z,66.20
2018-04-24T08:47:37.756Z,66.17
2018-04-24T08:50:06.101Z,66.60
2018-04-24T08:52:34.465Z,68.01
2018-04-24T08:55:02.809Z,68.43
2018-04-24T08:57:31.177Z,68.64
2018-04-24T08:59:59.521Z,68.48
2018-04-24T09:02:27.898Z,68.76
2018-04-24T09:04:56.232Z,68.64
2018-04-24T09:07:24.593Z,69.48
2018-04-24T09:09:52.932Z,69.77
2018-04-24T09:12:21.292Z,69.75
2018-04-24T09:14:49.653Z,70.22
2018-04-24T09:17:18.008Z,70.48
2018-04-24T09:19:46.353Z,70.06
2018-04-24T09:22:14.712Z,68.80
2018-04-24T09:24:43.065Z,68.80
2018-04-24T09:27:11.439Z,68.67
2018-04-24T09:29:39.768Z,68.77
2018-04-24T09:32:08.137Z,68.83
2018-04-24T09:34:36.472Z,69.04
2018-04-24T09:37:04.841Z,68.96
2018-04-24T09:39:33.185Z,68.94
2018-04-24T09:42:01.560Z,68.84
2018-04-24T09:44:29.914Z,68.81
2018-04-24T09:46:58.264Z,68.01
2018-04-24T09:49:26.673Z,67.24
2018-04-24T09:51:54.977Z,67.27
2018-04-24T09:54:23.325Z,67.42
2018-04-24T09:56:51.720Z,67.54
2018-04-24T09:59:20.061Z,68.45
2018-04-24T10:01:48.396Z,68.55
2018-04-24T10:04:16.760Z,68.40
2018-04-24T10:06:45.104Z,68.51
2018-04-24T10:09:13.464Z,68.08
2018-04-24T10:11:41.800Z,66.97
2018-04-24T10:14:10.162Z,68.06
2018-04-24T10:16:42.394Z,67.58
2018-04-24T10:19:11.408Z,66.80
2018-04-24T10:21:39.736Z,66.84
2018-04-24T10:24:08.101Z,66.24
2018-04-24T10:26:37.389Z,66.34
2018-04-24T10:29:05.758Z,66.35
2018-04-24T10:31:34.093Z,66.23
2018-04-24T10:34:02.457Z,65.24
2018-04-24T10:36:30.802Z,65.42
2018-04-24T10:38:59.195Z,65.83
2018-04-24T10:41:27.525Z,65.39
2018-04-24T10:43:55.940Z,65.15
2018-04-24T10:46:24.249Z,64.44
2018-04-24T10:48:52.608Z,65.15
2018-04-24T10:51:20.953Z,65.77
2018-04-24T10:53:50.258Z,66.53
2018-04-24T10:56:18.772Z,67.12
2018-04-24T10:58:47.127Z,67.20
2018-04-24T11:01:15.472Z,66.04
2018-04-24T11:03:43.832Z,65.17
2018-04-24T11:06:12.164Z,65.19
2018-04-24T11:08:40.524Z,64.57
2018-04-24T11:11:08.860Z,65.23
2018-04-24T11:13:37.992Z,64.57
2018-04-24T11:16:06.324Z,64.32
2018-04-24T11:18:34.690Z,63.78
2018-04-24T11:21:03.029Z,63.17
2018-04-24T11:23:31.385Z,62.29
2018-04-24T11:25:59.725Z,62.57
2018-04-24T11:28:28.085Z,62.22
2018-04-24T11:30:56.443Z,61.83
2018-04-24T11:33:25.449Z,62.47
2018-04-24T11:35:53.814Z,62.10
2018-04-24T11:38:22.148Z,61.18
2018-04-24T11:40:50.486Z,60.43
2018-04-24T11:43:18.849Z,61.12
2018-04-24T11:45:47.188Z,61.37
2018-04-24T11:48:15.561Z,60.36
2018-04-24T11:50:44.033Z,61.02
2018-04-24T11:53:12.426Z,60.75
2018-04-24T11:55:40.765Z,61.03
2018-04-24T11:58:09.126Z,61.05
2018-04-24T12:00:37.458Z,60.82
2018-04-24T12:03:05.813Z,60.41
2018-04-24T12:05:34.152Z,60.80
2018-04-24T12:08:02.498Z,60.62
2018-04-24T12:10:31.800Z,59.75
2018-04-24T12:13:00.149Z,60.58
2018-04-24T12:15:28.509Z,60.26
2018-04-24T12:17:56.980Z,60.67
2018-04-24T12:20:25.566Z,60.40
2018-04-24T12:22:54.142Z,60.66
2018-04-24T12:25:22.537Z,60.43
2018-04-24T12:27:50.885Z,59.84
2018-04-24T12:30:19.420Z,60.11
2018-04-24T12:32:47.756Z,60.03
2018-04-24T12:35:16.213Z,59.56
2018-04-24T12:37:44.540Z,59.66
2018-04-24T12:40:12.919Z,59.96
2018-04-24T12:42:41.276Z,60.30
2018-04-24T12:45:09.692Z,59.94
2018-04-24T12:47:37.997Z,60.07
2018-04-24T12:50:06.369Z,58.93
2018-04-24T12:52:34.728Z,58.61
2018-04-24T12:55:03.089Z,58.99
2018-04-24T12:57:31.429Z,59.83
2018-04-24T13:00:00.715Z,60.04
2018-04-24T13:02:29.088Z,59.15
2018-04-24T13:04:57.576Z,59.00
2018-04-24T13:07:25.904Z,59.81
2018-04-24T13:09:54.322Z,59.41
2018-04-24T13:12:22.658Z,59.46
2018-04-24T13:14:51.157Z,60.00
2018-04-24T13:17:19.493Z,59.14
2018-04-24T13:19:47.845Z,60.11
2018-04-24T13:22:16.224Z,58.91
2018-04-24T13:24:44.593Z,58.24
2018-04-24T13:27:12.925Z,58.36
2018-04-24T13:29:41.285Z,58.29
2018-04-24T13:32:09.621Z,58.67
2018-04-24T13:34:37.972Z,58.94
2018-04-24T13:37:06.360Z,58.33
2018-04-24T13:39:34.670Z,58.82
2018-04-24T13:42:03.068Z,58.38
2018-04-24T13:44:31.362Z,58.90
2018-04-24T13:46:59.735Z,58.70
2018-04-24T13:49:28.091Z,58.39
2018-04-24T13:51:56.441Z,58.97
2018-04-24T13:54:24.809Z,59.01
2018-04-24T13:56:53.148Z,58.14
2018-04-24T13:59:21.513Z,58.46
2018-04-24T14:01:49.851Z,57.41
2018-04-24T14:04:18.501Z,57.08
2018-04-24T14:06:46.840Z,57.26
2018-04-24T14:09:15.201Z,57.92
2018-04-24T14:11:43.532Z,57.54
2018-04-24T14:14:11.874Z,58.26
2018-04-24T14:16:40.229Z,58.29
2018-04-24T14:19:08.564Z,58.16
2018-04-24T14:21:36.971Z,58.61
2018-04-24T14:24:05.270Z,58.81
2018-04-24T14:26:34.614Z,57.87
2018-04-24T14:29:02.952Z,58.47
2018-04-24T14:31:31.316Z,58.15
2018-04-24T14:33:59.657Z,57.62
2018-04-24T14:36:28.021Z,57.94
2018-04-24T14:38:56.357Z,58.08
2018-04-24T14:41:24.750Z,58.52
2018-04-24T14:43:53.200Z,58.52
2018-04-24T14:46:21.636Z,57.92
2018-04-24T14:48:49.969Z,58.47
2018-04-24T14:51:18.321Z,57.70
2018-04-24T14:53:46.656Z,58.08
2018-04-24T14:56:15.021Z,58.34
2018-04-24T14:58:43.361Z,58.22
2018-04-24T15:01:11.724Z,58.35
2018-04-24T15:03:40.065Z,58.45
2018-04-24T15:06:08.429Z,58.56
2018-04-24T15:08:36.768Z,59.23
2018-04-24T15:11:05.125Z,59.10
2018-04-24T15:13:33.461Z,58.72
2018-04-24T15:16:01.817Z,59.28
2018-04-24T15:18:30.161Z,59.39
2018-04-24T15:20:58.505Z,59.32
2018-04-24T15:23:26.849Z,59.69
2018-04-24T15:25:55.213Z,59.65
2018-04-24T15:28:23.541Z,59.32
2018-04-24T15:30:51.904Z,58.73
2018-04-24T15:33:20.249Z,58.65
2018-04-24T15:35:48.614Z,58.95
2018-04-24T15:38:16.957Z,58.76
2018-04-24T15:40:45.313Z,58.55
2018-04-24T15:43:13.652Z,57.58
2018-04-24T15:45:42.008Z,57.48
2018-04-24T15:48:10.349Z,58.00
2018-04-24T15:50:38.717Z,58.22
2018-04-24T15:53:07.061Z,58.51
2018-04-24T15:55:35.424Z,57.18
2018-04-24T15:58:03.756Z,57.75
2018-04-24T16:00:32.114Z,57.42
2018-04-24T16:03:00.463Z,57.68
2018-04-24T16:05:28.816Z,58.17
2018-04-24T16:07:57.155Z,57.23
2018-04-24T16:10:25.511Z,57.87
2018-04-24T16:12:53.864Z,57.26
2018-04-24T16:15:22.206Z,57.20
2018-04-24T16:17:50.548Z,57.15
2018-04-24T16:20:19.497Z,57.86
2018-04-24T16:22:47.852Z,57.76
2018-04-24T16:25:16.189Z,57.43
2018-04-24T16:27:44.544Z,57.33
2018-04-24T16:30:12.952Z,57.77
2018-04-24T16:32:41.249Z,56.84
2018-04-24T16:35:09.589Z,57.11
2018-04-24T16:37:37.940Z,57.50
2018-04-24T16:40:06.280Z,57.05
2018-04-24T16:42:34.628Z,56.95
2018-04-24T16:45:02.971Z,56.31
2018-04-24T16:47:31.316Z,56.75
2018-04-24T16:49:59.648Z,56.69
2018-04-24T16:52:28.016Z,55.76
2018-04-24T16:54:56.354Z,56.39
2018-04-24T16:57:24.744Z,56.47
2018-04-24T16:59:54.100Z,55.99
2018-04-24T17:02:22.461Z,56.48
2018-04-24T17:04:50.976Z,56.96
2018-04-24T17:07:19.340Z,57.21
2018-04-24T17:09:47.683Z,57.31
2018-04-24T17:12:16.042Z,57.54
2018-04-24T17:14:44.372Z,58.00
2018-04-24T17:17:12.736Z,57.83
2018-04-24T17:19:41.074Z,57.92
2018-04-24T17:22:09.488Z,57.99
2018-04-24T17:24:37.825Z,58.39
2018-04-24T17:27:07.241Z,58.14
2018-04-24T17:29:35.581Z,58.13
2018-04-24T17:32:03.927Z,58.48
2018-04-24T17:34:32.268Z,58.54
2018-04-24T17:37:00.628Z,58.94
2018-04-24T17:39:28.991Z,59.14
2018-04-24T17:41:57.416Z,58.88
2018-04-24T17:44:25.744Z,59.00
2018-04-24T17:46:54.884Z,59.19
2018-04-24T17:49:23.225Z,58.95
2018-04-24T17:51:51.580Z,59.42
2018-04-24T17:54:19.937Z,59.51
2018-04-24T17:56:48.292Z,59.73
2018-04-24T17:59:16.633Z,59.84
2018-04-24T18:01:45.027Z,60.15
2018-04-24T18:04:13.312Z,59.83
2018-04-24T18:06:41.694Z,60.25
2018-04-24T18:09:10.028Z,60.04
2018-04-24T18:11:38.385Z,60.40
2018-04-24T18:14:06.721Z,60.17
2018-04-24T18:16:36.050Z,60.15
2018-04-24T18:19:04.393Z,60.42
2018-04-24T18:21:32.773Z,60.81
2018-04-24T18:24:01.080Z,61.06
2018-04-24T18:26:29.424Z,60.89
2018-04-24T18:28:57.789Z,61.02
2018-04-24T18:31:26.130Z,61.22
2018-04-24T18:33:54.499Z,61.42
2018-04-24T18:36:22.875Z,61.47
2018-04-24T18:38:51.235Z,61.63
2018-04-24T18:41:19.562Z,61.75
2018-04-24T18:43:47.916Z,62.14
2018-04-24T18:46:16.256Z,62.53
2018-04-24T18:48:44.613Z,62.49
2018-04-24T18:51:13.862Z,62.46
2018-04-24T18:53:42.153Z,62.54
2018-04-24T18:56:10.493Z,62.72
2018-04-24T18:58:38.877Z,60.62
2018-04-24T19:01:07.196Z,61.70
2018-04-24T19:03:35.576Z,62.24
2018-04-24T19:06:03.949Z,62.67
2018-04-24T19:08:32.296Z,62.80
2018-04-24T19:11:04.517Z,63.01
2018-04-24T19:13:32.873Z,63.08
2018-04-24T19:16:01.217Z,63.05
2018-04-24T19:18:35.112Z,63.38
2018-04-24T19:21:03.457Z,63.39
2018-04-24T19:23:31.811Z,63.32
2018-04-24T19:26:00.168Z,63.24
2018-04-24T19:28:28.532Z,63.12
2018-04-24T19:30:56.873Z,63.11
2018-04-24T19:33:26.686Z,62.72
2018-04-24T19:35:55.808Z,62.69
2018-04-24T19:38:24.168Z,62.23
2018-04-24T19:40:58.247Z,62.05
2018-04-24T19:43:26.548Z,62.18
2018-04-24T19:45:54.894Z,62.39
2018-04-24T19:48:28.933Z,62.71
2018-04-24T19:50:57.266Z,62.80
2018-04-24T19:53:25.625Z,62.65
2018-04-24T19:55:53.961Z,62.67
2018-04-24T19:58:22.316Z,62.54
2018-04-24T20:00:50.651Z,62.86
2018-04-24T20:03:19.009Z,63.24
2018-04-24T20:05:47.340Z,63.67
2018-04-24T20:08:15.697Z,63.59
2018-04-24T20:10:44.036Z,63.42
2018-04-24T20:13:12.397Z,63.82
2018-04-24T20:15:40.738Z,63.85
2018-04-24T20:18:09.103Z,64.18
2018-04-24T20:20:37.437Z,64.67
2018-04-24T20:23:05.796Z,64.77
2018-04-24T20:25:34.138Z,64.80
2018-04-24T20:28:02.504Z,61.67
2018-04-24T20:30:30.843Z,63.90
2018-04-24T20:32:59.196Z,64.74
2018-04-24T20:35:27.533Z,64.92
2018-04-24T20:37:55.917Z,65.29
2018-04-24T20:40:24.244Z,65.43
2018-04-24T20:42:52.584Z,65.80
2018-04-24T20:45:20.940Z,65.97
2018-04-24T20:47:49.284Z,65.75
2018-04-24T20:50:17.636Z,65.91
2018-04-24T20:52:45.990Z,65.75
2018-04-24T20:55:14.342Z,65.86
2018-04-24T20:57:43.473Z,65.59
2018-04-24T21:00:11.836Z,65.41
2018-04-24T21:02:40.171Z,65.58
2018-04-24T21:05:08.533Z,65.26
2018-04-24T21:07:36.869Z,65.09
2018-04-24T21:10:05.228Z,65.37
2018-04-24T21:12:33.564Z,65.31
2018-04-24T21:15:01.929Z,65.29
2018-04-24T21:17:30.256Z,64.85
2018-04-24T21:19:58.625Z,64.08
2018-04-24T21:22:26.952Z,63.38
2018-04-24T21:24:55.307Z,64.05
2018-04-24T21:27:23.648Z,64.08
2018-04-24T21:29:52.004Z,63.88
2018-04-24T21:32:20.348Z,63.60
2018-04-24T21:34:48.711Z,63.36
2018-04-24T21:37:17.047Z,63.36
2018-04-24T21:39:45.401Z,63.54
2018-04-24T21:42:13.739Z,64.21
2018-04-24T21:44:42.109Z,64.89
2018-04-24T21:47:10.457Z,65.17
2018-04-24T21:49:41.290Z,65.03
2018-04-24T21:52:10.376Z,64.75
2018-04-24T21:54:39.733Z,64.85
2018-04-24T21:57:08.271Z,65.30
2018-04-24T21:59:36.899Z,64.99
2018-04-24T22:02:05.256Z,64.88
2018-04-24T22:04:33.626Z,64.62
2018-04-24T22:07:01.961Z,65.35
2018-04-24T22:09:30.321Z,65.94
2018-04-24T22:11:58.805Z,65.99
2018-04-24T22:14:27.159Z,66.17
2018-04-24T22:16:55.501Z,66.63
2018-04-24T22:19:24.828Z,67.03
2018-04-24T22:21:53.321Z,67.22
2018-04-24T22:24:21.744Z,67.40
2018-04-24T22:26:50.800Z,67.53
2018-04-24T22:29:19.160Z,67.17
2018-04-24T22:31:47.501Z,67.31
2018-04-24T22:34:15.865Z,67.74
2018-04-24T22:36:44.193Z,68.06
2018-04-24T22:39:13.437Z,68.27
2018-04-24T22:41:41.777Z,68.52
2018-04-24T22:44:10.136Z,68.69
2018-04-24T22:46:38.472Z,68.71
2018-04-24T22:49:06.836Z,68.92
2018-04-24T22:51:35.208Z,68.58
2018-04-24T22:54:03.542Z,68.62
2018-04-24T22:56:31.900Z,68.81
2018-04-24T22:59:00.237Z,68.77
2018-04-24T23:01:28.589Z,68.73
2018-04-24T23:03:56.920Z,68.87
2018-04-24T23:06:25.281Z,68.65
2018-04-24T23:08:53.608Z,68.46
2018-04-24T23:11:33.815Z,68.56
2018-04-24T23:14:19.864Z,68.48
2018-04-24T23:17:05.873Z,68.66
2018-04-24T23:19:51.912Z,68.50
2018-04-24T23:22:29.925Z,68.52
2018-04-24T23:24:58.280Z,68.63
2018-04-24T23:27:26.612Z,68.74
2018-04-24T23:29:54.964Z,69.46
2018-04-24T23:32:23.302Z,69.79
2018-04-24T23:34:51.656Z,69.91
2018-04-24T23:37:20.020Z,69.99
2018-04-24T23:39:48.381Z,70.42
2018-04-24T23:42:16.716Z,70.47
2018-04-24T23:44:45.074Z,70.58
2018-04-24T23:47:13.400Z,70.59
2018-04-24T23:49:41.752Z,70.52
2018-04-24T23:52:10.109Z,70.80
2018-04-24T23:54:38.448Z,70.80
2018-04-24T23:57:06.801Z,70.76
2018-04-24T23:59:35.136Z,70.89
